Time;durP1;ratioP1;P1;durP2;ratioP2;P2;SDS_P1;SDS_P2;PMS_P1;PMS_P2;Temp;Humidity;BMP_temperature;BMP_pressure;BME280_temperature;BME280_humidity;BME280_pressure;Samples;Min_cycle;Max_cycle;Signal;HPM_P1;HPM_P2
2022/06/04 00:02:20;;;;;;;11.23;6.13;;;21.90;96.30;;;;;;4833641;29;20034;-93
2022/06/04 00:04:54;;;;;;;10.13;6.07;;;22.80;96.70;;;;;;4818539;29;20026;-95
2022/06/04 00:07:21;;;;;;;9.68;5.75;;;21.60;96.80;;;;;;4840529;29;20034;-94
2022/06/04 00:15:46;;;;;;;10.10;5.55;;;21.80;96.70;;;;;;4843930;24;20352;-79
2022/06/04 00:18:23;;;;;;;11.00;6.57;;;22.10;95.70;;;;;;4825004;29;20015;-88
2022/06/04 00:20:54;;;;;;;11.45;6.18;;;22.00;95.50;;;;;;4820192;24;20060;-96
2022/06/04 00:23:26;;;;;;;11.63;7.30;;;22.00;96.20;;;;;;4780536;30;20343;-81
2022/06/04 00:25:59;;;;;;;11.45;6.95;;;22.10;96.30;;;;;;4798906;30;20038;-90
2022/06/04 00:28:36;;;;;;;13.07;6.80;;;22.20;96.30;;;;;;4802411;30;20047;-95
2022/06/04 00:31:41;;;;;;;15.02;6.70;;;22.20;96.90;;;;;;4805106;30;20027;-89
2022/06/04 00:34:08;;;;;;;10.73;5.97;;;22.40;95.90;;;;;;4801295;30;20340;-86
2022/06/04 00:36:42;;;;;;;12.20;6.07;;;22.50;95.60;;;;;;4799719;30;20094;-80
2022/06/04 00:39:17;;;;;;;10.95;6.40;;;22.60;95.40;;;;;;4797667;30;20270;-95
2022/06/04 00:42:17;;;;;;;12.95;7.47;;;22.80;95.50;;;;;;4788287;30;20031;-89
2022/06/04 00:45:17;;;;;;;10.23;5.55;;;24.30;95.70;;;;;;4784707;30;20582;-94
2022/06/04 00:47:43;;;;;;;13.35;6.93;;;22.70;95.10;;;;;;4790235;30;20032;-83
2022/06/04 00:50:15;;;;;;;13.18;6.90;;;22.60;95.10;;;;;;4787650;30;20046;-96
2022/06/04 00:52:52;;;;;;;11.57;6.10;;;22.60;95.10;;;;;;4775803;30;20023;-90
2022/06/04 00:55:19;;;;;;;13.75;7.05;;;22.20;95.90;;;;;;4796528;30;20015;-82
2022/06/04 00:58:08;;;;;;;12.52;7.22;;;22.20;95.90;;;;;;4785595;30;20156;-87
2022/06/04 01:00:41;;;;;;;10.63;6.30;;;21.90;96.30;;;;;;4800605;30;20484;-92
2022/06/04 01:03:22;;;;;;;;;;;21.70;96.80;;;;;;4799606;30;20031;-92
2022/06/04 01:06:36;;;;;;;11.90;6.63;;;22.10;96.80;;;;;;4795197;30;20405;-86
2022/06/04 01:09:27;;;;;;;11.57;6.93;;;21.50;97.20;;;;;;4771320;30;20032;-90
2022/06/04 01:12:29;;;;;;;10.25;6.10;;;21.00;97.40;;;;;;4789363;30;20027;-93
2022/06/04 01:15:31;;;;;;;10.93;6.60;;;21.30;97.50;;;;;;4741885;30;20069;-89
2022/06/04 01:18:28;;;;;;;10.45;6.03;;;21.70;97.90;;;;;;4752951;30;20032;-89
2022/06/04 01:24:37;;;;;;;11.63;5.85;;;21.00;98.20;;;;;;4767642;30;20124;-91
2022/06/04 01:27:48;;;;;;;10.50;6.20;;;20.80;97.90;;;;;;4768996;30;20081;-86
2022/06/04 01:30:23;;;;;;;13.93;6.65;;;20.90;97.80;;;;;;4756507;30;20112;-94
2022/06/04 01:33:38;;;;;;;10.15;5.97;;;20.90;98.10;;;;;;4911652;24;20054;-92
2022/06/04 01:36:54;;;;;;;12.23;6.20;;;18.50;97.50;;;;;;4749566;29;20034;-93
2022/06/04 01:39:25;;;;;;;12.20;6.47;;;22.30;98.60;;;;;;4779833;29;20105;-80
2022/06/04 01:44:32;;;;;;;10.70;6.40;;;21.80;96.60;;;;;;4841349;24;20054;-84
2022/06/04 01:47:36;;;;;;;11.93;6.63;;;21.80;96.30;;;;;;4831123;24;20059;-81
2022/06/04 01:50:34;;;;;;;11.40;6.03;;;23.00;96.90;;;;;;4800412;29;20054;-96
2022/06/04 01:53:17;;;;;;;11.57;6.13;;;22.20;97.10;;;;;;4811239;29;20046;-86
2022/06/04 01:56:10;;;;;;;9.90;5.45;;;21.80;96.30;;;;;;4795214;29;20495;-82
2022/06/04 01:58:44;;;;;;;13.70;6.88;;;21.90;96.00;;;;;;4814017;29;20244;-94
2022/06/04 02:01:32;;;;;;;10.37;6.33;;;21.90;96.30;;;;;;4795735;29;20035;-84
2022/06/04 02:04:14;;;;;;;10.60;6.35;;;21.90;96.40;;;;;;5207312;24;20058;-94
2022/06/04 02:09:56;;;;;;;15.10;6.32;;;21.70;96.50;;;;;;4825586;29;20077;-82
2022/06/04 02:12:25;;;;;;;11.00;5.88;;;21.90;96.00;;;;;;4846150;29;20035;-89
2022/06/04 02:17:46;;;;;;;12.23;6.53;;;21.80;96.30;;;;;;5020343;24;20049;-85
2022/06/04 02:20:32;;;;;;;11.65;7.20;;;23.60;96.40;;;;;;4818055;29;20095;-93
2022/06/04 02:22:58;;;;;;;14.10;7.00;;;21.90;96.00;;;;;;4821848;29;20066;-84
2022/06/04 02:25:57;;;;;;;10.02;5.65;;;22.10;96.20;;;;;;4821901;29;20027;-93
2022/06/04 02:28:22;;;;;;;12.57;6.50;;;23.80;96.50;;;;;;4840277;29;20050;-93
2022/06/04 02:31:56;;;;;;;13.13;6.32;;;21.70;96.10;;;;;;4829473;29;20029;-80
2022/06/04 02:35:08;;;;;;;13.80;6.68;;;22.80;96.80;;;;;;4687773;30;20055;-79
2022/06/04 02:38:08;;;;;;;11.00;5.43;;;20.80;97.60;;;;;;4838443;24;20069;-82
2022/06/04 02:40:45;;;;;;;12.23;6.38;;;21.30;97.90;;;;;;4858308;24;20119;-79
2022/06/04 02:46:15;;;;;;;10.38;5.93;;;20.40;99.10;;;;;;2245734;24;20051;-79
2022/06/04 02:55:10;;;;;;;12.82;6.63;;;21.20;98.70;;;;;;4789257;24;2629953;-78
2022/06/04 03:00:27;;;;;;;11.35;5.80;;;20.90;98.20;;;;;;3703246;24;20038;-80
2022/06/04 03:19:05;;;;;;;10.70;5.95;;;21.90;98.70;;;;;;5062908;24;20080;-81
2022/06/04 03:21:52;;;;;;;12.07;6.97;;;20.40;98.90;;;;;;4830891;29;20034;-79
2022/06/04 03:34:40;;;;;;;11.65;6.35;;;;;;;;;;1103552;27;20050;-81
2022/06/04 03:39:36;;;;;;;10.40;6.05;;;;;;;;;;4826885;29;20081;-79
2022/06/04 04:05:46;;;;;;;11.60;5.88;;;20.60;98.80;;;;;;2534829;24;20070;-80
2022/06/04 04:08:24;;;;;;;10.55;6.00;;;22.20;99.00;;;;;;4829816;29;20077;-82
2022/06/04 04:11:21;;;;;;;11.82;7.82;;;21.00;97.30;;;;;;4846162;29;20022;-79
2022/06/04 04:22:01;;;;;;;11.27;7.65;;;20.90;98.00;;;;;;4899940;24;20050;-83
2022/06/04 04:28:27;;;;;;;11.60;6.80;;;20.70;97.30;;;;;;4807296;30;20074;-81
2022/06/04 04:30:53;;;;;;;12.48;7.00;;;21.40;96.80;;;;;;5166639;24;20047;-79
2022/06/04 04:38:32;;;;;;;11.80;6.50;;;21.50;96.70;;;;;;4116198;27;20042;-80
2022/06/04 04:43:36;;;;;;;10.73;6.97;;;;;;;;;;4859016;24;20160;-82
2022/06/04 04:46:33;;;;;;;23.38;11.95;;;21.80;96.00;;;;;;4807733;29;20027;-88
2022/06/04 04:49:02;;;;;;;16.73;8.75;;;;;;;;;;4770681;30;20047;-84
2022/06/04 04:59:37;;;;;;;20.88;9.85;;;21.80;96.20;;;;;;4959656;24;20429;-85
2022/06/04 05:09:48;;;;;;;17.23;8.98;;;;;;;;;;4826285;29;20070;-90
2022/06/04 05:22:36;;;;;;;18.45;9.90;;;23.10;94.00;;;;;;4859747;24;20050;-80
2022/06/04 05:25:05;;;;;;;17.00;9.43;;;23.30;93.70;;;;;;4905845;24;20129;-80
2022/06/04 05:27:31;;;;;;;15.30;8.77;;;23.10;93.70;;;;;;4811168;29;20075;-81
2022/06/04 05:30:16;;;;;;;17.25;9.00;;;24.70;94.00;;;;;;4827741;29;20015;-79
2022/06/04 05:32:45;;;;;;;17.08;9.10;;;23.40;93.10;;;;;;5060422;24;20065;-79
2022/06/04 05:36:03;;;;;;;19.42;9.25;;;23.30;93.60;;;;;;4808399;29;20138;-84
2022/06/04 05:38:37;;;;;;;16.50;9.63;;;21.90;93.00;;;;;;4808510;29;20053;-82
2022/06/04 05:41:15;;;;;;;19.25;9.23;;;23.70;93.10;;;;;;4961419;24;20089;-80
2022/06/04 05:54:50;;;;;;;16.88;8.25;;;23.90;92.30;;;;;;4851764;24;20064;-80
2022/06/04 05:59:46;;;;;;;13.55;8.15;;;23.70;92.90;;;;;;4907034;24;20046;-93
2022/06/04 06:02:12;;;;;;;15.70;8.73;;;23.20;93.30;;;;;;4847253;24;20047;-86
2022/06/04 06:04:38;;;;;;;15.63;8.82;;;23.50;93.80;;;;;;4818033;29;20371;-87
2022/06/04 06:07:24;;;;;;;15.68;8.25;;;23.70;93.40;;;;;;4815577;29;20074;-91
2022/06/04 06:09:50;;;;;;;13.15;8.07;;;23.80;93.30;;;;;;4848555;24;20433;-91
2022/06/04 06:14:41;;;;;;;16.52;8.40;;;23.80;92.50;;;;;;4821481;24;20054;-83
2022/06/04 06:17:07;;;;;;;13.40;8.40;;;23.70;92.90;;;;;;4820671;29;20026;-89
2022/06/04 06:19:38;;;;;;;14.95;7.13;;;23.60;93.40;;;;;;4815903;29;20023;-94
2022/06/04 06:22:04;;;;;;;12.80;7.80;;;23.70;93.00;;;;;;4818428;29;20681;-83
2022/06/04 06:24:30;;;;;;;13.20;8.07;;;23.80;93.20;;;;;;4815924;29;20037;-84
2022/06/04 06:26:58;;;;;;;11.48;7.22;;;23.80;93.10;;;;;;4815576;29;20065;-88
2022/06/04 06:29:27;;;;;;;12.98;8.10;;;24.00;93.00;;;;;;4816767;29;20042;-86
2022/06/04 06:31:56;;;;;;;15.43;8.48;;;23.90;93.20;;;;;;4809647;29;20042;-94
2022/06/04 06:34:32;;;;;;;12.35;7.47;;;24.10;92.80;;;;;;4809324;29;20027;-95
2022/06/04 06:36:57;;;;;;;12.15;7.15;;;24.30;92.90;;;;;;4810961;29;20038;-88
2022/06/04 06:39:30;;;;;;;13.20;8.13;;;24.30;92.80;;;;;;4794954;29;20039;-94
2022/06/04 06:41:59;;;;;;;11.40;6.78;;;24.70;91.90;;;;;;4819627;29;20130;-90
2022/06/04 06:44:33;;;;;;;13.68;7.28;;;25.40;92.30;;;;;;4819715;29;20022;-91
2022/06/04 06:46:59;;;;;;;11.85;7.50;;;24.80;93.30;;;;;;4815030;29;20114;-94
2022/06/04 06:49:39;;;;;;;13.50;7.70;;;24.80;92.60;;;;;;4967093;24;20101;-91
2022/06/04 06:52:19;;;;;;;11.85;7.55;;;24.90;92.10;;;;;;4817506;29;20032;-91
2022/06/04 06:54:46;;;;;;;12.55;8.20;;;25.10;91.90;;;;;;4815389;29;20542;-88
2022/06/04 06:57:27;;;;;;;12.98;7.20;;;27.70;93.90;;;;;;4812210;29;20030;-90
2022/06/04 06:59:54;;;;;;;12.77;7.38;;;25.30;93.10;;;;;;4813842;29;20053;-86
2022/06/04 07:02:19;;;;;;;11.68;7.25;;;25.40;92.20;;;;;;4813593;29;20026;-88
2022/06/04 07:04:48;;;;;;;12.27;8.35;;;25.40;92.30;;;;;;4812743;29;20685;-85
2022/06/04 07:07:20;;;;;;;10.93;7.18;;;25.40;92.00;;;;;;4794722;29;20104;-86
2022/06/04 07:09:45;;;;;;;12.40;6.78;;;25.50;91.20;;;;;;4812440;29;20038;-81
2022/06/04 07:12:12;;;;;;;13.82;7.20;;;25.70;90.80;;;;;;4812590;29;20026;-89
2022/06/04 07:14:40;;;;;;;10.77;6.68;;;25.80;90.80;;;;;;4812063;29;20034;-83
2022/06/04 07:17:07;;;;;;;12.90;7.55;;;24.20;89.80;;;;;;4795809;29;20018;-89
2022/06/04 07:19:33;;;;;;;15.30;7.65;;;25.90;90.80;;;;;;4812100;29;20046;-89
2022/06/04 07:21:59;;;;;;;12.95;6.93;;;25.80;90.30;;;;;;4812406;29;20629;-90
2022/06/04 07:24:25;;;;;;;12.40;7.32;;;25.80;90.10;;;;;;4811797;29;20014;-82
2022/06/04 07:26:52;;;;;;;12.77;7.35;;;25.80;89.90;;;;;;4812353;29;20091;-92
2022/06/04 07:29:18;;;;;;;14.98;8.00;;;25.90;89.80;;;;;;4812726;29;20042;-84
2022/06/04 07:31:44;;;;;;;12.85;8.15;;;26.00;89.90;;;;;;4796375;29;20794;-89
2022/06/04 07:34:11;;;;;;;13.00;7.72;;;26.00;89.40;;;;;;4812970;29;20042;-82
2022/06/04 07:36:40;;;;;;;13.07;8.30;;;26.00;90.10;;;;;;4812464;29;20662;-81
2022/06/04 07:39:08;;;;;;;13.45;7.50;;;26.20;89.80;;;;;;4796857;29;20054;-92
2022/06/04 07:41:38;;;;;;;21.35;8.23;;;26.20;88.30;;;;;;4798570;29;20658;-77
2022/06/04 07:44:06;;;;;;;14.20;8.38;;;26.30;88.00;;;;;;4817978;29;20113;-82
2022/06/04 07:46:32;;;;;;;12.68;7.70;;;26.30;88.20;;;;;;4820850;29;20053;-95
2022/06/04 07:49:21;;;;;;;13.40;8.35;;;26.60;88.00;;;;;;4828377;29;20042;-81
2022/06/04 07:51:54;;;;;;;12.65;7.72;;;26.40;88.50;;;;;;4823861;29;20039;-85
2022/06/04 07:54:20;;;;;;;14.57;8.02;;;27.10;86.00;;;;;;4844756;29;20045;-84
2022/06/04 07:56:55;;;;;;;13.52;7.82;;;26.70;87.30;;;;;;4827720;29;20018;-78
2022/06/04 07:59:21;;;;;;;12.77;8.05;;;26.80;86.00;;;;;;4843026;29;20167;-89
2022/06/04 08:01:48;;;;;;;10.93;6.32;;;26.80;85.50;;;;;;4842247;29;20030;-83
2022/06/04 08:04:15;;;;;;;11.43;6.65;;;26.90;81.70;;;;;;4844667;29;20031;-80
2022/06/04 08:06:43;;;;;;;10.90;5.93;;;27.10;81.70;;;;;;4824778;29;20037;-95
2022/06/04 08:09:29;;;;;;;9.30;5.70;;;27.20;80.60;;;;;;4844157;29;20022;-90
2022/06/04 08:13:08;;;;;;;9.07;5.05;;;27.30;81.40;;;;;;4839404;29;20123;-87
2022/06/04 08:15:37;;;;;;;13.35;6.82;;;27.40;79.90;;;;;;4840937;29;20040;-79
2022/06/04 08:18:17;;;;;;;11.73;6.28;;;27.40;79.90;;;;;;4844534;29;20031;-79
2022/06/04 08:20:44;;;;;;;9.82;5.90;;;27.50;79.80;;;;;;4826696;29;20035;-78
2022/06/04 08:23:31;;;;;;;10.88;6.13;;;27.60;79.50;;;;;;4820186;29;20014;-79
2022/06/04 08:25:57;;;;;;;11.90;6.25;;;27.70;79.30;;;;;;4821876;29;20020;-79
2022/06/04 08:28:22;;;;;;;12.93;7.53;;;28.30;80.80;;;;;;4826447;24;20070;-79
2022/06/04 08:31:09;;;;;;;11.77;6.47;;;27.80;79.90;;;;;;4816788;29;20060;-79
2022/06/04 08:34:07;;;;;;;15.90;6.50;;;28.00;79.00;;;;;;4820238;29;20017;-78
2022/06/04 08:36:38;;;;;;;14.63;6.60;;;28.10;78.40;;;;;;4825706;29;20019;-78
2022/06/04 08:39:29;;;;;;;9.93;6.05;;;28.20;78.90;;;;;;4816405;29;20034;-79
2022/06/04 08:44:47;;;;;;;10.70;5.70;;;28.50;78.60;;;;;;3131416;27;20058;-93
2022/06/04 08:48:00;;;;;;;12.70;7.18;;;29.00;77.50;;;;;;4819566;29;20037;-82
2022/06/04 08:53:02;;;;;;;9.88;5.32;;;28.70;75.70;;;;;;4688762;27;20062;-93
2022/06/04 09:00:44;;;;;;;12.05;6.00;;;29.00;74.10;;;;;;4916768;24;20050;-82
2022/06/04 09:11:03;;;;;;;12.98;5.82;;;29.50;73.50;;;;;;4823251;29;20051;-79
2022/06/04 09:13:41;;;;;;;9.27;5.47;;;29.50;71.60;;;;;;4821897;29;20053;-91
2022/06/04 09:16:36;;;;;;;10.45;5.22;;;29.10;69.80;;;;;;4815939;29;20027;-89
2022/06/04 09:19:33;;;;;;;9.43;5.50;;;29.50;70.30;;;;;;4823825;29;20054;-79
2022/06/04 09:22:56;;;;;;;13.80;5.18;;;29.00;70.30;;;;;;4793323;29;20032;-94
2022/06/04 09:25:33;;;;;;;9.82;5.30;;;29.70;70.40;;;;;;4849520;24;20058;-80
2022/06/04 09:28:28;;;;;;;11.20;4.88;;;29.80;70.70;;;;;;4813749;29;20043;-93
2022/06/04 09:31:15;;;;;;;11.35;4.72;;;30.00;69.00;;;;;;4846177;29;20034;-92
2022/06/04 09:33:51;;;;;;;9.98;5.05;;;30.00;68.70;;;;;;4828093;29;20525;-88
2022/06/04 09:41:30;;;;;;;10.98;3.60;;;30.40;63.90;;;;;;4817735;29;20085;-84
2022/06/04 09:44:18;;;;;;;9.77;3.90;;;30.60;62.20;;;;;;4809232;29;20061;-93
2022/06/04 09:46:58;;;;;;;9.48;4.18;;;30.80;61.50;;;;;;4817382;29;20023;-83
2022/06/04 09:49:37;;;;;;;9.18;3.88;;;30.60;61.10;;;;;;4814439;29;20039;-88
2022/06/04 09:52:14;;;;;;;10.88;3.63;;;31.10;60.80;;;;;;4803471;29;20054;-91
2022/06/04 09:55:03;;;;;;;10.88;3.25;;;31.20;59.40;;;;;;4772859;29;20038;-94
2022/06/04 09:57:36;;;;;;;10.05;3.92;;;31.40;59.30;;;;;;4800869;29;20035;-93
2022/06/04 10:00:17;;;;;;;8.75;3.88;;;31.70;58.80;;;;;;4799819;29;20093;-87
2022/06/04 10:03:10;;;;;;;12.00;4.18;;;31.90;58.80;;;;;;4785429;29;20043;-95
2022/06/04 10:05:51;;;;;;;9.77;3.70;;;32.00;58.10;;;;;;4784646;29;20030;-96
2022/06/04 10:08:23;;;;;;;8.00;3.20;;;32.30;56.10;;;;;;4799207;29;20043;-80
2022/06/04 10:10:49;;;;;;;10.52;3.50;;;32.50;54.80;;;;;;4899027;24;20054;-79
2022/06/04 10:13:42;;;;;;;11.30;3.60;;;32.60;54.80;;;;;;4813425;29;20697;-85
2022/06/04 10:16:21;;;;;;;10.35;3.85;;;32.60;53.90;;;;;;4828990;29;20019;-82
2022/06/04 10:18:52;;;;;;;9.20;3.78;;;32.10;54.40;;;;;;4827940;29;20031;-89
2022/06/04 10:21:25;;;;;;;7.88;3.05;;;32.00;54.00;;;;;;4808451;29;20026;-80
2022/06/04 10:23:54;;;;;;;12.60;3.03;;;32.00;53.30;;;;;;4823931;29;20024;-94
2022/06/04 10:26:40;;;;;;;9.13;3.22;;;32.00;53.60;;;;;;4801718;29;20022;-94
2022/06/04 10:29:26;;;;;;;10.48;3.33;;;32.00;52.40;;;;;;4820661;29;20032;-79
2022/06/04 10:32:08;;;;;;;11.70;3.60;;;32.00;53.30;;;;;;4800908;29;20022;-93
2022/06/04 10:34:38;;;;;;;7.85;2.70;;;32.20;52.20;;;;;;4817234;29;20260;-91
2022/06/04 10:37:16;;;;;;;8.05;2.95;;;32.10;52.00;;;;;;4816702;29;20030;-87
2022/06/04 10:40:10;;;;;;;6.07;2.88;;;31.90;52.10;;;;;;4801029;29;20042;-89
2022/06/04 10:42:56;;;;;;;11.93;3.95;;;32.00;53.30;;;;;;4805305;29;20058;-80
2022/06/04 10:45:32;;;;;;;11.02;3.38;;;32.10;53.90;;;;;;4799373;29;20027;-92
2022/06/04 10:48:11;;;;;;;7.25;3.25;;;32.20;52.50;;;;;;4814510;29;20049;-85
2022/06/04 10:54:04;;;;;;;9.73;3.83;;;32.00;53.20;;;;;;4814261;29;20034;-87
2022/06/04 10:56:40;;;;;;;7.00;2.75;;;31.90;52.40;;;;;;4739522;30;20112;-92
2022/06/04 10:59:15;;;;;;;9.88;2.72;;;32.00;52.40;;;;;;4725017;30;20166;-90
2022/06/04 11:02:19;;;;;;;12.20;3.95;;;32.10;54.50;;;;;;4740348;30;20139;-93
2022/06/04 11:04:52;;;;;;;8.13;4.10;;;32.20;55.90;;;;;;4641647;30;20284;-85
2022/06/04 11:07:41;;;;;;;6.90;3.30;;;32.40;54.20;;;;;;4656230;30;20038;-92
2022/06/04 11:10:13;;;;;;;10.77;4.35;;;32.70;55.50;;;;;;4669398;30;20042;-80
2022/06/04 11:12:55;;;;;;;9.45;4.20;;;32.80;55.20;;;;;;4659945;30;20022;-94
2022/06/04 11:15:42;;;;;;;10.77;3.77;;;33.00;54.60;;;;;;4663713;30;20102;-93
2022/06/04 11:18:20;;;;;;;9.90;3.72;;;33.00;54.60;;;;;;4657652;30;20674;-91
2022/06/04 11:21:24;;;;;;;8.57;4.07;;;32.90;55.80;;;;;;4662231;30;20161;-87
2022/06/04 11:24:29;;;;;;;11.35;4.10;;;32.60;56.10;;;;;;4621471;31;20047;-87
2022/06/04 11:27:28;;;;;;;5.75;3.08;;;32.40;54.60;;;;;;4606837;31;20043;-91
2022/06/04 11:35:41;;;;;;;13.02;4.13;;;33.80;54.50;;;;;;5163495;24;20054;-84
2022/06/04 11:39:04;;;;;;;;;;;;;;;;;;;;;
2022/06/04 11:42:04;;;;;;;9.07;4.07;;;36.50;53.60;;;;;;4794773;29;20031;-90
2022/06/04 11:44:56;;;;;;;9.07;3.97;;;39.30;55.20;;;;;;4792794;29;20380;-91
2022/06/04 11:51:07;;;;;;;9.25;3.55;;;36.70;50.70;;;;;;4758112;30;20140;-90
2022/06/04 11:53:57;;;;;;;10.63;4.07;;;36.00;47.60;;;;;;4742827;30;20047;-88
2022/06/04 11:59:32;;;;;;;7.60;5.13;;;37.10;49.90;;;;;;4978249;24;20050;-90
2022/06/04 12:05:40;;;;;;;9.63;3.83;;;37.30;50.40;;;;;;4757797;30;20112;-91
2022/06/04 12:08:28;;;;;;;6.80;3.20;;;37.00;47.40;;;;;;4742050;30;20028;-90
2022/06/04 12:11:30;;;;;;;9.45;4.40;;;37.00;48.40;;;;;;4741923;30;20039;-91
2022/06/04 12:14:11;;;;;;;8.35;4.30;;;37.00;48.80;;;;;;4693410;30;20623;-91
2022/06/04 12:16:42;;;;;;;8.60;3.47;;;37.30;47.10;;;;;;4708938;30;20553;-92
2022/06/04 12:24:15;;;;;;;9.80;3.88;;;37.60;46.40;;;;;;4697534;30;20076;-91
2022/06/04 12:25:21;;;;;;;8.88;2.90;;;38.00;45.40;;;;;;4705334;30;20279;-90
2022/06/04 12:28:03;;;;;;;11.77;3.88;;;38.40;45.40;;;;;;4690254;30;20040;-90
2022/06/04 12:30:47;;;;;;;10.70;3.90;;;38.70;45.70;;;;;;4704883;30;20057;-90
2022/06/04 12:36:55;;;;;;;9.57;3.13;;;39.60;43.20;;;;;;4706203;30;20111;-90
2022/06/04 12:39:43;;;;;;;8.70;3.85;;;39.20;44.00;;;;;;4769649;24;20132;-91
2022/06/04 12:42:27;;;;;;;9.65;3.30;;;39.00;44.40;;;;;;4796844;29;20146;-90
2022/06/04 12:45:29;;;;;;;11.75;3.78;;;38.70;44.00;;;;;;4794849;29;20029;-91
2022/06/04 12:48:01;;;;;;;13.02;3.83;;;38.40;44.40;;;;;;4817121;24;20554;-85
2022/06/04 12:50:39;;;;;;;8.88;3.60;;;37.20;44.10;;;;;;4794948;29;20034;-86
2022/06/04 12:53:27;;;;;;;7.30;3.42;;;37.20;42.70;;;;;;4798731;24;20055;-92
2022/06/04 12:56:00;;;;;;;11.00;3.50;;;38.90;44.50;;;;;;4793351;29;20022;-85
2022/06/04 13:07:01;;;;;;;8.57;3.80;;;39.10;42.50;;;;;;5011345;24;20054;-85
2022/06/04 13:10:26;;;;;;;11.55;4.20;;;38.80;42.70;;;;;;4796340;29;20701;-90
2022/06/04 13:31:38;;;;;;;6.57;3.00;;;40.70;39.90;;;;;;4793106;29;20047;-87
2022/06/04 13:35:00;;;;;;;11.23;3.17;;;41.10;40.60;;;;;;4792985;29;20039;-93
2022/06/04 13:37:38;;;;;;;8.73;2.97;;;41.90;40.60;;;;;;4776908;29;20039;-91
2022/06/04 13:44:04;;;;;;;5.60;2.08;;;41.20;40.30;;;;;;4793944;29;20053;-87
2022/06/04 13:53:25;;;;;;;8.82;2.92;;;41.00;39.00;;;;;;4852685;24;20094;-91
2022/06/04 13:56:21;;;;;;;10.20;3.23;;;40.20;38.40;;;;;;4795673;29;20641;-92
2022/06/04 14:19:29;;;;;;;7.30;2.53;;;41.80;38.30;;;;;;4801330;24;20058;-86
2022/06/04 14:22:21;;;;;;;7.07;2.50;;;41.90;38.50;;;;;;4807644;29;20027;-86
2022/06/04 14:25:05;;;;;;;7.03;3.63;;;41.70;39.00;;;;;;4808287;29;20027;-87
2022/06/04 14:27:37;;;;;;;9.95;3.63;;;41.40;39.10;;;;;;4820426;29;20069;-91
2022/06/04 14:30:22;;;;;;;;;;;41.90;38.90;;;;;;4802813;29;20441;-91
2022/06/04 14:32:56;;;;;;;8.40;2.83;;;42.10;38.80;;;;;;4799159;29;20008;-83
2022/06/04 14:36:08;;;;;;;9.45;3.40;;;41.50;39.00;;;;;;4822008;24;20066;-88
2022/06/04 14:38:36;;;;;;;7.93;3.47;;;43.60;41.00;;;;;;4778065;29;20072;-87
2022/06/04 14:41:20;;;;;;;8.25;3.25;;;40.60;39.90;;;;;;4779587;29;20088;-92
2022/06/04 14:44:10;;;;;;;9.10;2.80;;;41.00;39.70;;;;;;4794940;29;20522;-92
2022/06/04 14:46:55;;;;;;;9.07;3.25;;;41.30;39.40;;;;;;4797315;29;20096;-87
2022/06/04 14:49:48;;;;;;;9.55;3.15;;;41.80;40.00;;;;;;4795258;29;20031;-90
2022/06/04 14:52:36;;;;;;;12.80;3.70;;;42.20;39.00;;;;;;4795338;29;20034;-89
2022/06/04 14:55:19;;;;;;;9.13;3.55;;;42.00;38.60;;;;;;4796998;29;20528;-90
2022/06/04 15:00:57;;;;;;;11.68;3.75;;;42.40;38.50;;;;;;4819234;24;20061;-83
2022/06/04 15:04:12;;;;;;;8.85;4.43;;;42.90;38.40;;;;;;4814571;29;20056;-85
2022/06/04 15:07:11;;;;;;;10.32;3.83;;;44.50;38.30;;;;;;4792869;29;20716;-90
2022/06/04 15:10:32;;;;;;;12.70;3.75;;;43.80;38.20;;;;;;4793140;29;20072;-87
2022/06/04 15:13:54;;;;;;;10.82;3.55;;;43.90;37.00;;;;;;4793347;29;20662;-90
2022/06/04 15:16:57;;;;;;;8.40;3.63;;;43.00;37.50;;;;;;4775679;29;20126;-86
2022/06/04 15:20:02;;;;;;;8.73;2.95;;;44.50;39.10;;;;;;4792698;29;20058;-90
2022/06/04 15:26:23;;;;;;;12.30;4.03;;;44.10;39.00;;;;;;4812911;24;20690;-88
2022/06/04 15:35:19;;;;;;;10.45;3.40;;;41.70;38.80;;;;;;4814640;29;20614;-86
2022/06/04 15:37:53;;;;;;;9.07;3.30;;;41.60;38.90;;;;;;4798386;29;20022;-85
2022/06/04 15:40:21;;;;;;;5.47;2.55;;;41.60;39.10;;;;;;4798586;29;20736;-85
2022/06/04 15:42:53;;;;;;;9.43;3.00;;;41.70;39.10;;;;;;4819661;29;20110;-90
2022/06/04 15:45:24;;;;;;;10.70;3.40;;;41.70;39.30;;;;;;4813832;29;20047;-94
2022/06/04 15:47:58;;;;;;;10.82;4.28;;;41.90;38.90;;;;;;4826285;29;20030;-89
2022/06/04 15:56:32;;;;;;;8.40;2.78;;;41.60;39.60;;;;;;4814723;29;20071;-91
2022/06/04 15:59:18;;;;;;;8.43;2.70;;;41.60;39.20;;;;;;4798456;29;20022;-81
2022/06/04 16:02:05;;;;;;;7.75;2.85;;;41.20;39.30;;;;;;4794927;29;20106;-83
2022/06/04 16:04:54;;;;;;;9.77;2.95;;;41.20;39.60;;;;;;4782774;29;20657;-89
2022/06/04 16:07:34;;;;;;;7.10;3.00;;;41.20;39.30;;;;;;4788532;29;20047;-86
2022/06/04 16:10:38;;;;;;;7.13;3.17;;;40.70;39.90;;;;;;4806971;29;20050;-81
2022/06/04 16:13:15;;;;;;;9.95;2.72;;;41.90;41.30;;;;;;4780005;29;20023;-82
2022/06/04 16:16:07;;;;;;;7.90;2.92;;;40.50;40.20;;;;;;4782320;29;20031;-84
2022/06/04 16:18:54;;;;;;;9.43;3.42;;;40.00;40.50;;;;;;4789867;29;20034;-82
2022/06/04 16:21:43;;;;;;;8.20;3.00;;;39.80;40.70;;;;;;4799000;29;20026;-88
2022/06/04 16:24:32;;;;;;;6.10;2.65;;;39.60;40.50;;;;;;4737518;30;20303;-87
2022/06/04 16:27:35;;;;;;;13.50;2.65;;;38.90;41.00;;;;;;4722371;30;20052;-89
2022/06/04 16:30:24;;;;;;;5.53;2.65;;;38.80;41.30;;;;;;4721472;30;20067;-88
2022/06/04 16:33:08;;;;;;;6.43;2.33;;;38.70;41.90;;;;;;4736769;30;20028;-89
2022/06/04 16:36:00;;;;;;;7.95;3.33;;;38.50;42.00;;;;;;4738296;30;20052;-88
2022/06/04 16:38:52;;;;;;;6.68;3.05;;;39.70;43.00;;;;;;4721992;30;20028;-82
2022/06/04 16:43:52;;;;;;;9.70;3.45;;;37.50;43.30;;;;;;4817344;24;20065;-83
2022/06/04 16:46:29;;;;;;;10.80;3.55;;;37.10;43.90;;;;;;4793623;29;20054;-81
2022/06/04 17:00:16;;;;;;;7.53;2.35;;;35.80;46.40;;;;;;4827410;24;20062;-89
2022/06/04 17:03:15;;;;;;;10.15;3.15;;;35.70;46.70;;;;;;4813380;29;20037;-90
2022/06/04 17:06:15;;;;;;;10.43;3.45;;;34.10;45.90;;;;;;4816698;29;20722;-94
2022/06/04 17:09:08;;;;;;;13.05;3.13;;;36.00;47.60;;;;;;4816968;29;20045;-90
2022/06/04 17:11:49;;;;;;;;;;;34.70;47.60;;;;;;4798155;29;20030;-90
2022/06/04 17:14:49;;;;;;;8.30;3.35;;;34.90;48.90;;;;;;4798081;29;19942;-91
2022/06/04 17:18:01;;;;;;;11.48;3.50;;;34.50;49.30;;;;;;4825340;29;20089;-91
2022/06/04 17:21:05;;;;;;;7.95;3.03;;;33.70;50.20;;;;;;4814178;29;20097;-88
2022/06/04 17:26:30;;;;;;;7.65;3.30;;;32.90;52.30;;;;;;4832819;24;20061;-91
2022/06/04 17:29:23;;;;;;;8.20;3.33;;;32.60;53.10;;;;;;4809239;29;20515;-91
2022/06/04 17:32:21;;;;;;;8.00;2.67;;;31.40;53.30;;;;;;4823622;29;20034;-84
2022/06/04 17:35:30;;;;;;;11.20;4.72;;;32.20;55.40;;;;;;4744135;30;20116;-94
2022/06/04 17:38:34;;;;;;;8.90;3.13;;;31.60;54.80;;;;;;4761134;24;20479;-90
2022/06/04 17:41:35;;;;;;;5.50;2.38;;;31.60;55.70;;;;;;4797361;29;20526;-89
2022/06/04 17:44:16;;;;;;;6.30;2.75;;;31.30;55.90;;;;;;4799499;24;20059;-92
2022/06/04 17:46:53;;;;;;;11.88;3.70;;;31.30;56.90;;;;;;4781093;30;20031;-90
2022/06/04 17:49:33;;;;;;;9.77;3.58;;;31.20;56.80;;;;;;4801667;24;20056;-90
2022/06/04 17:51:59;;;;;;;11.43;4.47;;;31.00;57.00;;;;;;5216064;24;20097;-85
2022/06/04 17:54:26;;;;;;;11.90;3.88;;;30.90;57.60;;;;;;4790450;29;20097;-88
2022/06/04 17:57:08;;;;;;;;;;;;;;;;;;;;;
2022/06/04 17:59:56;;;;;;;11.05;4.70;;;30.50;58.40;;;;;;4779850;29;20396;-91
2022/06/04 18:02:31;;;;;;;11.50;3.72;;;30.40;58.60;;;;;;5012340;24;20141;-92
2022/06/04 18:04:56;;;;;;;14.77;4.00;;;27.80;59.00;;;;;;4821519;29;20039;-91
2022/06/04 18:10:14;;;;;;;11.57;3.63;;;30.10;60.50;;;;;;4814976;29;20042;-86
2022/06/04 18:12:55;;;;;;;10.40;4.50;;;29.90;61.10;;;;;;4799593;29;20230;-92
2022/06/04 18:15:21;;;;;;;10.55;4.30;;;29.70;62.30;;;;;;4799162;29;20622;-87
2022/06/04 18:17:50;;;;;;;10.73;4.30;;;29.50;62.90;;;;;;4775411;30;20035;-92
2022/06/04 18:20:23;;;;;;;10.18;4.32;;;29.30;64.40;;;;;;4775946;30;20039;-92
2022/06/04 18:22:55;;;;;;;8.88;4.03;;;29.20;63.90;;;;;;4776161;30;20078;-92
2022/06/04 18:25:27;;;;;;;11.77;4.57;;;29.00;64.40;;;;;;4813718;24;20055;-92
2022/06/04 18:27:55;;;;;;;12.82;5.22;;;28.70;65.50;;;;;;4814188;29;20675;-82
2022/06/04 18:30:34;;;;;;;10.63;4.47;;;28.40;65.70;;;;;;4814690;29;20123;-92
2022/06/04 18:32:59;;;;;;;11.98;4.68;;;28.20;66.40;;;;;;4814772;29;20023;-85
2022/06/04 18:35:25;;;;;;;8.73;4.03;;;28.00;66.90;;;;;;4820226;24;20546;-87
2022/06/04 18:37:52;;;;;;;10.88;4.60;;;27.90;67.50;;;;;;4814128;29;20456;-86
2022/06/04 18:40:22;;;;;;;9.80;4.45;;;27.70;68.50;;;;;;4814036;29;20090;-91
2022/06/04 18:54:27;;;;;;;7.38;3.20;;;26.80;70.40;;;;;;4804923;29;20287;-90
2022/06/04 18:56:55;;;;;;;8.75;3.42;;;26.50;71.30;;;;;;4795430;29;20094;-91
2022/06/04 18:59:25;;;;;;;13.60;3.40;;;26.40;72.10;;;;;;4798526;29;20026;-94